Stations météo

Publicité
Santon Downham, Grande-Bretagne (99118): Température de l'air & dewpoint: 15.01.2020 10:00:00 - 21.01.2020 10:00:00 (GMT)Santon Downham, Grande-Bretagne (99118): Température de l'air -20cm & Température de l'air -100cm: 15.01.2020 10:00:00 - 21.01.2020 10:00:00 (GMT)Santon Downham, Grande-Bretagne (99118): Quantités de précipitations: 15.01.2020 10:00:00 - 21.01.2020 10:00:00 (GMT)
Date & Time tt [°C] td [°C] tt -20cm [°C] tt -100cm [°C] rr [mm]
21.01.2020 10:00:00 -0,2 -0,5 - - 0,0
21.01.2020 09:00:00 -3,5 -4,0 4,4 7,7 0,0
21.01.2020 08:00:00 -4,3 -5,0 - - 0,0
21.01.2020 07:00:00 -4,3 -5,0 - - 0,0
21.01.2020 06:00:00 -4,4 -5,1 - - 0,0
21.01.2020 05:00:00 -3,9 -4,5 - - 0,0
21.01.2020 04:00:00 -3,7 -4,3 - - 0,0
21.01.2020 03:00:00 -3,5 -4,1 - - 0,0
21.01.2020 02:00:00 -3,4 -3,9 - - 0,0
21.01.2020 01:00:00 -3,1 -3,6 - - 0,0
21.01.2020 00:00:00 -2,9 -3,4 - - 0,0
20.01.2020 23:00:00 -2,7 -3,1 - - 0,0
20.01.2020 22:00:00 -2,3 -2,7 - - 0,0
20.01.2020 21:00:00 -2,3 -2,9 - - 0,0
20.01.2020 20:00:00 -1,9 -2,4 - - 0,0
20.01.2020 19:00:00 -1,4 -2,1 - - 0,0
20.01.2020 18:00:00 -0,3 -1,3 - - 0,0
20.01.2020 17:00:00 1,5 -0,1 - - 0,0
20.01.2020 16:00:00 4,2 1,2 - - 0,0
20.01.2020 15:00:00 7,4 2,0 - - 0,0
20.01.2020 14:00:00 7,6 2,1 - - 0,0
20.01.2020 13:00:00 7,2 2,4 - - 0,0
20.01.2020 12:00:00 5,9 2,1 - - 0,0
20.01.2020 11:00:00 3,7 2,1 - - 0,0
20.01.2020 10:00:00 0,2 -0,1 - - 0,0
20.01.2020 09:00:00 -0,4 -0,7 4,7 7,9 0,0
20.01.2020 08:00:00 -0,9 -1,2 - - 0,0
20.01.2020 07:00:00 -1,1 -1,5 - - 0,0
20.01.2020 06:00:00 -0,2 -0,4 - - 0,0
20.01.2020 05:00:00 -0,5 -0,8 - - 0,0
20.01.2020 04:00:00 -0,5 -0,8 - - 0,0
20.01.2020 03:00:00 -0,7 -1,1 - - 0,0
20.01.2020 02:00:00 -0,7 -1,0 - - 0,0
20.01.2020 01:00:00 -0,5 -0,8 - - 0,0
20.01.2020 00:00:00 -1,0 -1,3 - - 0,0
19.01.2020 23:00:00 -1,4 -1,8 - - 0,0
19.01.2020 22:00:00 -1,9 -2,3 - - 0,0
19.01.2020 21:00:00 -2,8 -3,2 - - 0,0
19.01.2020 20:00:00 -2,8 -3,4 - - 0,0
19.01.2020 19:00:00 -2,1 -2,7 - - 0,0
19.01.2020 18:00:00 -1,3 -2,0 - - 0,0
19.01.2020 17:00:00 0,4 -0,7 - - 0,0
19.01.2020 16:00:00 3,7 0,8 - - 0,0
19.01.2020 15:00:00 7,1 1,9 - - 0,0
19.01.2020 14:00:00 6,8 1,5 - - 0,0
19.01.2020 13:00:00 6,6 1,7 - - 0,0
19.01.2020 12:00:00 5,0 1,9 - - 0,0
19.01.2020 11:00:00 2,7 1,4 - - 0,0
19.01.2020 10:00:00 -0,6 -1,0 - - 0,2
19.01.2020 09:00:00 -3,5 -4,0 5,7 8,0 0,0
19.01.2020 08:00:00 -3,7 -4,3 - - 0,0
19.01.2020 07:00:00 -3,7 -4,3 - - 0,0
19.01.2020 06:00:00 -3,4 -4,0 - - 0,0
19.01.2020 05:00:00 -3,1 -3,6 - - 0,0
19.01.2020 04:00:00 -3,5 -4,1 - - 0,0
19.01.2020 03:00:00 -3,4 -4,0 - - 0,0
19.01.2020 02:00:00 -3,0 -3,5 - - 0,0
19.01.2020 01:00:00 -2,9 -3,4 - - 0,0
19.01.2020 00:00:00 -2,6 -3,1 - - 0,0
18.01.2020 23:00:00 -2,4 -2,9 - - 0,0
18.01.2020 22:00:00 -2,0 -2,4 - - 0,0
18.01.2020 21:00:00 -1,5 -1,9 - - 0,0
18.01.2020 20:00:00 -1,0 -1,5 - - 0,0
18.01.2020 19:00:00 -0,3 -1,0 - - 0,0
18.01.2020 18:00:00 0,2 -0,8 - - 0,0
18.01.2020 17:00:00 2,1 0,1 - - 0,0
18.01.2020 16:00:00 5,5 1,1 - - 0,0
18.01.2020 15:00:00 7,1 1,0 - - 0,0
18.01.2020 14:00:00 7,2 1,2 - - 0,0
18.01.2020 13:00:00 6,8 1,2 - - 0,0
18.01.2020 12:00:00 6,3 1,8 - - 0,0
18.01.2020 11:00:00 5,0 1,7 - - 0,0
18.01.2020 10:00:00 3,3 1,0 - - 0,0
18.01.2020 09:00:00 0,1 -0,7 6,7 8,2 0,0
18.01.2020 08:00:00 1,0 -0,2 - - 0,0
18.01.2020 07:00:00 0,8 -0,2 - - 0,0
18.01.2020 06:00:00 0,8 -0,4 - - 0,0
18.01.2020 05:00:00 1,3 0,3 - - 0,0
18.01.2020 04:00:00 1,5 0,6 - - 0,0
18.01.2020 03:00:00 1,9 0,8 - - 0,0
18.01.2020 02:00:00 2,7 1,2 - - 0,2
18.01.2020 01:00:00 3,3 1,7 - - 0,0
18.01.2020 00:00:00 2,4 1,2 - - 0,0
17.01.2020 23:00:00 2,5 1,0 - - 0,0
17.01.2020 22:00:00 2,9 1,3 - - 0,0
17.01.2020 21:00:00 3,4 1,6 - - 0,0
17.01.2020 20:00:00 4,0 2,0 - - 0,0
17.01.2020 19:00:00 4,3 2,1 - - 0,0
17.01.2020 18:00:00 4,7 1,9 - - 0,0
17.01.2020 17:00:00 5,0 1,8 - - 0,0
17.01.2020 16:00:00 5,5 2,1 - - 0,0
17.01.2020 15:00:00 5,4 3,2 - - 0,2
17.01.2020 14:00:00 7,6 5,6 - - 0,2
17.01.2020 13:00:00 9,3 4,3 - - 0,0
17.01.2020 12:00:00 9,7 5,7 - - 0,0
17.01.2020 11:00:00 10,1 6,8 - - 0,0
17.01.2020 10:00:00 8,3 6,3 - - 0,0
17.01.2020 09:00:00 7,9 6,1 7,4 8,2 0,0
17.01.2020 08:00:00 8,4 6,1 - - 0,6
17.01.2020 07:00:00 9,4 8,5 - - 0,0
17.01.2020 06:00:00 9,7 8,7 - - 0,2
17.01.2020 05:00:00 10,0 8,6 - - 0,0
17.01.2020 04:00:00 10,1 8,4 - - 0,0
17.01.2020 03:00:00 10,3 8,4 - - 0,0
17.01.2020 02:00:00 10,7 8,7 - - 0,2
17.01.2020 01:00:00 10,7 9,0 - - 0,0
17.01.2020 00:00:00 10,8 9,0 - - 0,0
16.01.2020 23:00:00 10,9 9,3 - - 0,2
16.01.2020 22:00:00 10,2 8,7 - - 0,6
16.01.2020 21:00:00 10,9 8,1 - - 0,0
16.01.2020 20:00:00 11,3 7,1 - - 0,0
16.01.2020 19:00:00 11,3 6,9 - - 0,0
16.01.2020 18:00:00 11,1 6,8 - - 0,0
16.01.2020 17:00:00 10,3 6,8 - - 0,0
16.01.2020 16:00:00 10,2 6,8 - - 0,0
16.01.2020 15:00:00 10,1 7,0 - - 0,0
16.01.2020 14:00:00 9,5 6,3 - - 0,0
16.01.2020 13:00:00 9,1 6,1 - - 0,0
16.01.2020 12:00:00 9,0 6,0 - - 0,0
16.01.2020 11:00:00 8,5 5,8 - - 0,0
16.01.2020 10:00:00 7,7 5,1 - - 0,0
16.01.2020 09:00:00 7,2 5,6 7,0 8,2 0,0
16.01.2020 08:00:00 6,5 5,2 - - 0,0
16.01.2020 07:00:00 6,2 4,6 - - 0,0
16.01.2020 06:00:00 6,4 4,3 - - 0,0
16.01.2020 05:00:00 7,1 4,9 - - 0,0
16.01.2020 04:00:00 7,2 4,8 - - 0,0
16.01.2020 03:00:00 6,3 4,1 - - 0,0
16.01.2020 02:00:00 5,7 3,4 - - 0,0
16.01.2020 01:00:00 5,9 3,2 - - 0,0
16.01.2020 00:00:00 6,7 3,3 - - 0,0
15.01.2020 23:00:00 6,7 2,9 - - 0,0
15.01.2020 22:00:00 7,0 2,6 - - 0,0
15.01.2020 21:00:00 7,3 2,6 - - 0,0
15.01.2020 20:00:00 7,2 2,7 - - 0,0
15.01.2020 19:00:00 6,9 2,8 - - 0,0
15.01.2020 18:00:00 6,8 3,3 - - 0,0
15.01.2020 17:00:00 7,0 4,3 - - 0,0
15.01.2020 16:00:00 7,5 4,4 - - 0,0
15.01.2020 15:00:00 8,9 4,5 - - 0,0
15.01.2020 14:00:00 8,9 5,4 - - 0,0
15.01.2020 13:00:00 8,2 5,7 - - 0,2
15.01.2020 12:00:00 7,2 5,5 - - 0,0
15.01.2020 11:00:00 6,9 5,4 - - 0,0
15.01.2020 10:00:00 6,9 5,7 - - 0,2

tt = Température de l'air
td = dewpoint
tt -20cm = Température de l'air -20cm
tt -100cm = Température de l'air -100cm
rr = Quantités de précipitations

stations d'obs. à proximité